sensor_id;sensor_type;location;lat;lon;timestamp;P1;durP1;ratioP1;P2;durP2;ratioP2
75810;SDS011;64449;50.016;19.954;2023-08-30T00:01:00;10.80;;;8.30;;
75810;SDS011;64449;50.016;19.954;2023-08-30T00:03:25;12.40;;;7.90;;
75810;SDS011;64449;50.016;19.954;2023-08-30T00:05:50;11.30;;;7.10;;
75810;SDS011;64449;50.016;19.954;2023-08-30T00:08:16;11.90;;;6.90;;
75810;SDS011;64449;50.016;19.954;2023-08-30T00:10:48;9.60;;;6.60;;
75810;SDS011;64449;50.016;19.954;2023-08-30T00:13:13;11.10;;;7.00;;
75810;SDS011;64449;50.016;19.954;2023-08-30T00:15:39;10.70;;;6.40;;
75810;SDS011;64449;50.016;19.954;2023-08-30T00:18:04;10.60;;;6.70;;
75810;SDS011;64449;50.016;19.954;2023-08-30T00:20:30;8.60;;;5.40;;
75810;SDS011;64449;50.016;19.954;2023-08-30T00:22:55;8.60;;;5.10;;
75810;SDS011;64449;50.016;19.954;2023-08-30T00:25:21;8.20;;;4.90;;
75810;SDS011;64449;50.016;19.954;2023-08-30T00:27:46;9.50;;;5.20;;
75810;SDS011;64449;50.016;19.954;2023-08-30T00:30:12;8.40;;;4.80;;
75810;SDS011;64449;50.016;19.954;2023-08-30T00:32:37;6.40;;;4.50;;
75810;SDS011;64449;50.016;19.954;2023-08-30T00:35:03;7.40;;;4.80;;
75810;SDS011;64449;50.016;19.954;2023-08-30T00:37:29;8.50;;;4.20;;
75810;SDS011;64449;50.016;19.954;2023-08-30T00:39:54;9.20;;;4.90;;
75810;SDS011;64449;50.016;19.954;2023-08-30T00:42:19;7.90;;;4.40;;
75810;SDS011;64449;50.016;19.954;2023-08-30T00:44:45;7.90;;;4.60;;
75810;SDS011;64449;50.016;19.954;2023-08-30T00:47:10;8.80;;;4.10;;
75810;SDS011;64449;50.016;19.954;2023-08-30T00:49:35;8.90;;;4.10;;
75810;SDS011;64449;50.016;19.954;2023-08-30T00:52:02;7.90;;;4.70;;
75810;SDS011;64449;50.016;19.954;2023-08-30T00:54:30;7.40;;;4.10;;
75810;SDS011;64449;50.016;19.954;2023-08-30T00:56:56;8.60;;;4.40;;
75810;SDS011;64449;50.016;19.954;2023-08-30T00:59:21;9.80;;;3.80;;
75810;SDS011;64449;50.016;19.954;2023-08-30T01:01:48;5.70;;;3.90;;
75810;SDS011;64449;50.016;19.954;2023-08-30T01:04:14;7.40;;;4.70;;
75810;SDS011;64449;50.016;19.954;2023-08-30T01:06:39;11.20;;;4.00;;
75810;SDS011;64449;50.016;19.954;2023-08-30T01:09:05;6.70;;;3.70;;
75810;SDS011;64449;50.016;19.954;2023-08-30T01:11:39;7.00;;;3.60;;
75810;SDS011;64449;50.016;19.954;2023-08-30T01:14:38;6.10;;;3.70;;
75810;SDS011;64449;50.016;19.954;2023-08-30T01:17:10;6.50;;;3.50;;
75810;SDS011;64449;50.016;19.954;2023-08-30T01:28:03;5.70;;;3.70;;
75810;SDS011;64449;50.016;19.954;2023-08-30T01:30:31;8.30;;;4.10;;
75810;SDS011;64449;50.016;19.954;2023-08-30T01:32:59;7.80;;;4.20;;
75810;SDS011;64449;50.016;19.954;2023-08-30T01:35:26;7.00;;;3.90;;
75810;SDS011;64449;50.016;19.954;2023-08-30T01:37:57;6.60;;;3.90;;
75810;SDS011;64449;50.016;19.954;2023-08-30T01:40:25;7.60;;;4.10;;
75810;SDS011;64449;50.016;19.954;2023-08-30T01:42:53;7.00;;;4.10;;
75810;SDS011;64449;50.016;19.954;2023-08-30T01:45:19;6.70;;;4.20;;
75810;SDS011;64449;50.016;19.954;2023-08-30T01:47:46;9.20;;;4.10;;
75810;SDS011;64449;50.016;19.954;2023-08-30T01:50:13;5.90;;;4.20;;
75810;SDS011;64449;50.016;19.954;2023-08-30T01:52:40;7.80;;;4.20;;
75810;SDS011;64449;50.016;19.954;2023-08-30T01:55:07;7.00;;;4.10;;
75810;SDS011;64449;50.016;19.954;2023-08-30T01:57:33;7.50;;;4.00;;
75810;SDS011;64449;50.016;19.954;2023-08-30T01:59:59;6.20;;;3.90;;
75810;SDS011;64449;50.016;19.954;2023-08-30T02:02:28;6.60;;;3.70;;
75810;SDS011;64449;50.016;19.954;2023-08-30T02:04:54;7.90;;;4.10;;
75810;SDS011;64449;50.016;19.954;2023-08-30T02:07:20;7.60;;;4.10;;
75810;SDS011;64449;50.016;19.954;2023-08-30T02:10:06;7.70;;;3.90;;
75810;SDS011;64449;50.016;19.954;2023-08-30T02:12:37;5.70;;;3.60;;
75810;SDS011;64449;50.016;19.954;2023-08-30T02:15:07;6.40;;;4.20;;
75810;SDS011;64449;50.016;19.954;2023-08-30T02:17:35;6.20;;;4.30;;
75810;SDS011;64449;50.016;19.954;2023-08-30T02:20:03;7.90;;;5.10;;
75810;SDS011;64449;50.016;19.954;2023-08-30T02:22:30;8.20;;;5.80;;
75810;SDS011;64449;50.016;19.954;2023-08-30T02:24:56;13.70;;;8.60;;
75810;SDS011;64449;50.016;19.954;2023-08-30T02:27:21;13.90;;;8.80;;
75810;SDS011;64449;50.016;19.954;2023-08-30T02:29:46;14.10;;;9.00;;
75810;SDS011;64449;50.016;19.954;2023-08-30T02:32:12;15.60;;;9.70;;
75810;SDS011;64449;50.016;19.954;2023-08-30T02:34:37;12.30;;;8.40;;
75810;SDS011;64449;50.016;19.954;2023-08-30T02:37:02;18.20;;;13.00;;
75810;SDS011;64449;50.016;19.954;2023-08-30T02:39:28;9.90;;;7.10;;
75810;SDS011;64449;50.016;19.954;2023-08-30T02:41:53;15.80;;;11.30;;
75810;SDS011;64449;50.016;19.954;2023-08-30T02:44:19;11.60;;;7.20;;
75810;SDS011;64449;50.016;19.954;2023-08-30T02:46:44;8.30;;;5.10;;
75810;SDS011;64449;50.016;19.954;2023-08-30T02:49:09;6.70;;;4.10;;
75810;SDS011;64449;50.016;19.954;2023-08-30T02:51:36;5.70;;;4.10;;
75810;SDS011;64449;50.016;19.954;2023-08-30T02:54:01;6.20;;;3.50;;
75810;SDS011;64449;50.016;19.954;2023-08-30T02:56:27;8.60;;;3.70;;
75810;SDS011;64449;50.016;19.954;2023-08-30T02:58:53;5.40;;;4.00;;
75810;SDS011;64449;50.016;19.954;2023-08-30T03:01:18;6.70;;;3.70;;
75810;SDS011;64449;50.016;19.954;2023-08-30T03:03:45;5.90;;;3.70;;
75810;SDS011;64449;50.016;19.954;2023-08-30T03:06:11;5.40;;;3.70;;
75810;SDS011;64449;50.016;19.954;2023-08-30T03:08:39;10.60;;;5.70;;
75810;SDS011;64449;50.016;19.954;2023-08-30T03:11:08;6.30;;;4.30;;
75810;SDS011;64449;50.016;19.954;2023-08-30T03:13:37;6.50;;;4.20;;
75810;SDS011;64449;50.016;19.954;2023-08-30T03:16:15;9.10;;;5.20;;
75810;SDS011;64449;50.016;19.954;2023-08-30T03:18:42;6.30;;;4.20;;
75810;SDS011;64449;50.016;19.954;2023-08-30T03:21:08;6.70;;;4.70;;
75810;SDS011;64449;50.016;19.954;2023-08-30T03:23:35;19.90;;;12.50;;
75810;SDS011;64449;50.016;19.954;2023-08-30T03:26:22;9.90;;;6.20;;
75810;SDS011;64449;50.016;19.954;2023-08-30T03:28:46;6.20;;;3.60;;
75810;SDS011;64449;50.016;19.954;2023-08-30T03:33:40;6.50;;;4.10;;
75810;SDS011;64449;50.016;19.954;2023-08-30T03:36:11;6.90;;;4.60;;
75810;SDS011;64449;50.016;19.954;2023-08-30T03:38:38;5.50;;;3.70;;
75810;SDS011;64449;50.016;19.954;2023-08-30T03:41:04;6.20;;;4.90;;
75810;SDS011;64449;50.016;19.954;2023-08-30T03:43:30;6.20;;;3.80;;
75810;SDS011;64449;50.016;19.954;2023-08-30T03:45:57;8.10;;;4.60;;
75810;SDS011;64449;50.016;19.954;2023-08-30T03:48:23;7.70;;;4.60;;
75810;SDS011;64449;50.016;19.954;2023-08-30T03:50:48;5.60;;;3.80;;
75810;SDS011;64449;50.016;19.954;2023-08-30T03:53:14;5.30;;;3.60;;
75810;SDS011;64449;50.016;19.954;2023-08-30T03:55:40;8.60;;;6.00;;
75810;SDS011;64449;50.016;19.954;2023-08-30T03:58:05;8.40;;;3.90;;
75810;SDS011;64449;50.016;19.954;2023-08-30T04:00:31;6.60;;;4.00;;
75810;SDS011;64449;50.016;19.954;2023-08-30T04:02:56;6.20;;;3.40;;
75810;SDS011;64449;50.016;19.954;2023-08-30T04:05:22;5.80;;;4.20;;
75810;SDS011;64449;50.016;19.954;2023-08-30T04:07:47;6.70;;;4.30;;
75810;SDS011;64449;50.016;19.954;2023-08-30T04:10:12;6.80;;;3.70;;
75810;SDS011;64449;50.016;19.954;2023-08-30T04:12:38;6.60;;;4.40;;
75810;SDS011;64449;50.016;19.954;2023-08-30T04:15:03;6.00;;;4.00;;
75810;SDS011;64449;50.016;19.954;2023-08-30T04:17:29;6.00;;;4.10;;
75810;SDS011;64449;50.016;19.954;2023-08-30T04:19:54;6.40;;;4.30;;
75810;SDS011;64449;50.016;19.954;2023-08-30T04:22:20;19.60;;;13.60;;
75810;SDS011;64449;50.016;19.954;2023-08-30T04:24:45;13.60;;;9.60;;
75810;SDS011;64449;50.016;19.954;2023-08-30T04:27:11;7.80;;;4.90;;
75810;SDS011;64449;50.016;19.954;2023-08-30T04:29:37;7.90;;;4.50;;
75810;SDS011;64449;50.016;19.954;2023-08-30T04:32:02;8.80;;;6.40;;
75810;SDS011;64449;50.016;19.954;2023-08-30T04:34:28;8.30;;;5.30;;
75810;SDS011;64449;50.016;19.954;2023-08-30T04:36:55;6.30;;;4.80;;
75810;SDS011;64449;50.016;19.954;2023-08-30T04:39:21;8.70;;;4.80;;
75810;SDS011;64449;50.016;19.954;2023-08-30T04:41:46;7.60;;;5.40;;
75810;SDS011;64449;50.016;19.954;2023-08-30T04:44:11;9.90;;;6.60;;
75810;SDS011;64449;50.016;19.954;2023-08-30T04:46:37;10.40;;;6.40;;
75810;SDS011;64449;50.016;19.954;2023-08-30T04:49:02;10.80;;;7.00;;
75810;SDS011;64449;50.016;19.954;2023-08-30T04:51:28;10.40;;;6.20;;
75810;SDS011;64449;50.016;19.954;2023-08-30T04:53:53;14.50;;;9.60;;
75810;SDS011;64449;50.016;19.954;2023-08-30T04:56:19;14.10;;;8.90;;
75810;SDS011;64449;50.016;19.954;2023-08-30T04:58:44;17.40;;;10.50;;
75810;SDS011;64449;50.016;19.954;2023-08-30T05:01:10;13.30;;;7.70;;
75810;SDS011;64449;50.016;19.954;2023-08-30T05:03:38;11.40;;;7.70;;
75810;SDS011;64449;50.016;19.954;2023-08-30T05:06:03;11.60;;;7.00;;
75810;SDS011;64449;50.016;19.954;2023-08-30T05:08:29;11.60;;;6.60;;
75810;SDS011;64449;50.016;19.954;2023-08-30T05:10:54;10.40;;;7.10;;
75810;SDS011;64449;50.016;19.954;2023-08-30T05:13:20;9.50;;;6.00;;
75810;SDS011;64449;50.016;19.954;2023-08-30T05:15:45;11.30;;;6.60;;
75810;SDS011;64449;50.016;19.954;2023-08-30T05:18:11;9.30;;;5.50;;
75810;SDS011;64449;50.016;19.954;2023-08-30T05:20:36;10.70;;;6.00;;
75810;SDS011;64449;50.016;19.954;2023-08-30T05:23:02;9.30;;;6.20;;
75810;SDS011;64449;50.016;19.954;2023-08-30T05:25:27;10.80;;;6.60;;
75810;SDS011;64449;50.016;19.954;2023-08-30T05:27:53;11.50;;;7.30;;
75810;SDS011;64449;50.016;19.954;2023-08-30T05:30:19;10.60;;;6.60;;
75810;SDS011;64449;50.016;19.954;2023-08-30T05:32:44;11.90;;;6.90;;
75810;SDS011;64449;50.016;19.954;2023-08-30T05:35:10;10.50;;;7.40;;
75810;SDS011;64449;50.016;19.954;2023-08-30T05:37:35;10.70;;;7.10;;
75810;SDS011;64449;50.016;19.954;2023-08-30T05:40:00;8.70;;;6.10;;
75810;SDS011;64449;50.016;19.954;2023-08-30T05:42:26;13.40;;;8.30;;
75810;SDS011;64449;50.016;19.954;2023-08-30T05:44:52;10.50;;;6.60;;
75810;SDS011;64449;50.016;19.954;2023-08-30T05:47:18;12.70;;;8.30;;
75810;SDS011;64449;50.016;19.954;2023-08-30T05:49:44;11.20;;;7.60;;
75810;SDS011;64449;50.016;19.954;2023-08-30T05:52:09;18.70;;;10.30;;
75810;SDS011;64449;50.016;19.954;2023-08-30T05:54:35;16.00;;;10.50;;
75810;SDS011;64449;50.016;19.954;2023-08-30T05:57:00;14.80;;;7.30;;
75810;SDS011;64449;50.016;19.954;2023-08-30T05:59:26;11.30;;;6.70;;
75810;SDS011;64449;50.016;19.954;2023-08-30T06:01:51;12.10;;;7.30;;
75810;SDS011;64449;50.016;19.954;2023-08-30T06:04:16;15.30;;;7.40;;
75810;SDS011;64449;50.016;19.954;2023-08-30T06:06:42;12.30;;;6.30;;
75810;SDS011;64449;50.016;19.954;2023-08-30T06:09:07;12.10;;;7.00;;
75810;SDS011;64449;50.016;19.954;2023-08-30T06:11:33;11.20;;;6.90;;
75810;SDS011;64449;50.016;19.954;2023-08-30T06:13:58;10.50;;;6.70;;
75810;SDS011;64449;50.016;19.954;2023-08-30T06:16:24;9.90;;;6.70;;
75810;SDS011;64449;50.016;19.954;2023-08-30T06:18:50;12.70;;;6.90;;
75810;SDS011;64449;50.016;19.954;2023-08-30T06:21:15;12.50;;;6.50;;
75810;SDS011;64449;50.016;19.954;2023-08-30T06:23:41;11.60;;;7.00;;
75810;SDS011;64449;50.016;19.954;2023-08-30T06:26:06;10.40;;;6.30;;
75810;SDS011;64449;50.016;19.954;2023-08-30T06:28:32;14.30;;;7.70;;
75810;SDS011;64449;50.016;19.954;2023-08-30T06:30:57;10.40;;;6.80;;
75810;SDS011;64449;50.016;19.954;2023-08-30T06:33:23;12.60;;;6.30;;
75810;SDS011;64449;50.016;19.954;2023-08-30T06:35:48;13.10;;;7.60;;
75810;SDS011;64449;50.016;19.954;2023-08-30T06:38:15;12.10;;;7.80;;
75810;SDS011;64449;50.016;19.954;2023-08-30T06:40:45;12.70;;;7.60;;
75810;SDS011;64449;50.016;19.954;2023-08-30T06:43:11;12.80;;;6.90;;
75810;SDS011;64449;50.016;19.954;2023-08-30T06:45:38;13.70;;;7.80;;
75810;SDS011;64449;50.016;19.954;2023-08-30T06:48:05;12.30;;;7.20;;
75810;SDS011;64449;50.016;19.954;2023-08-30T06:50:32;12.70;;;7.70;;
75810;SDS011;64449;50.016;19.954;2023-08-30T06:52:58;13.10;;;8.40;;
75810;SDS011;64449;50.016;19.954;2023-08-30T06:55:23;13.20;;;7.90;;
75810;SDS011;64449;50.016;19.954;2023-08-30T06:57:48;12.90;;;7.30;;
75810;SDS011;64449;50.016;19.954;2023-08-30T07:00:15;14.70;;;9.00;;
75810;SDS011;64449;50.016;19.954;2023-08-30T07:02:41;14.10;;;8.30;;
75810;SDS011;64449;50.016;19.954;2023-08-30T07:05:10;12.20;;;7.20;;
75810;SDS011;64449;50.016;19.954;2023-08-30T07:07:35;12.20;;;8.10;;
75810;SDS011;64449;50.016;19.954;2023-08-30T07:10:01;13.50;;;7.80;;
75810;SDS011;64449;50.016;19.954;2023-08-30T07:12:27;11.90;;;7.80;;
75810;SDS011;64449;50.016;19.954;2023-08-30T07:14:53;17.00;;;7.90;;
75810;SDS011;64449;50.016;19.954;2023-08-30T07:17:19;15.40;;;9.40;;
75810;SDS011;64449;50.016;19.954;2023-08-30T07:19:44;16.70;;;9.50;;
75810;SDS011;64449;50.016;19.954;2023-08-30T07:22:10;16.20;;;9.20;;
75810;SDS011;64449;50.016;19.954;2023-08-30T07:24:35;15.00;;;8.20;;
75810;SDS011;64449;50.016;19.954;2023-08-30T07:27:01;15.80;;;8.20;;
75810;SDS011;64449;50.016;19.954;2023-08-30T07:29:26;19.40;;;8.60;;
75810;SDS011;64449;50.016;19.954;2023-08-30T07:31:52;16.00;;;8.00;;
75810;SDS011;64449;50.016;19.954;2023-08-30T07:34:18;14.10;;;8.60;;
75810;SDS011;64449;50.016;19.954;2023-08-30T07:36:44;14.10;;;8.10;;
75810;SDS011;64449;50.016;19.954;2023-08-30T07:39:09;19.40;;;9.70;;
75810;SDS011;64449;50.016;19.954;2023-08-30T07:41:35;13.50;;;7.70;;
75810;SDS011;64449;50.016;19.954;2023-08-30T07:44:00;19.00;;;9.00;;
75810;SDS011;64449;50.016;19.954;2023-08-30T07:46:26;19.10;;;8.80;;
75810;SDS011;64449;50.016;19.954;2023-08-30T07:48:51;18.90;;;8.20;;
75810;SDS011;64449;50.016;19.954;2023-08-30T07:51:17;13.40;;;7.10;;
75810;SDS011;64449;50.016;19.954;2023-08-30T07:53:42;12.10;;;6.60;;
75810;SDS011;64449;50.016;19.954;2023-08-30T07:56:08;11.80;;;6.30;;
75810;SDS011;64449;50.016;19.954;2023-08-30T07:58:33;11.00;;;5.50;;
75810;SDS011;64449;50.016;19.954;2023-08-30T08:00:59;10.10;;;5.80;;
75810;SDS011;64449;50.016;19.954;2023-08-30T08:03:24;11.00;;;5.30;;
75810;SDS011;64449;50.016;19.954;2023-08-30T08:05:50;11.40;;;5.60;;
75810;SDS011;64449;50.016;19.954;2023-08-30T08:08:15;9.30;;;5.50;;
75810;SDS011;64449;50.016;19.954;2023-08-30T08:10:42;11.10;;;6.00;;
75810;SDS011;64449;50.016;19.954;2023-08-30T08:13:08;11.00;;;5.10;;
75810;SDS011;64449;50.016;19.954;2023-08-30T08:15:33;10.40;;;4.90;;
75810;SDS011;64449;50.016;19.954;2023-08-30T08:18:02;9.80;;;5.20;;
75810;SDS011;64449;50.016;19.954;2023-08-30T08:20:28;9.50;;;5.30;;
75810;SDS011;64449;50.016;19.954;2023-08-30T08:22:54;10.20;;;5.20;;
75810;SDS011;64449;50.016;19.954;2023-08-30T08:25:20;7.60;;;4.60;;
75810;SDS011;64449;50.016;19.954;2023-08-30T08:27:47;10.30;;;5.50;;
75810;SDS011;64449;50.016;19.954;2023-08-30T08:30:12;11.10;;;6.10;;
75810;SDS011;64449;50.016;19.954;2023-08-30T08:32:38;9.90;;;5.50;;
75810;SDS011;64449;50.016;19.954;2023-08-30T08:35:04;11.80;;;5.80;;
75810;SDS011;64449;50.016;19.954;2023-08-30T08:37:30;8.50;;;5.00;;
75810;SDS011;64449;50.016;19.954;2023-08-30T08:39:57;7.10;;;4.20;;
75810;SDS011;64449;50.016;19.954;2023-08-30T08:42:22;7.20;;;4.30;;
75810;SDS011;64449;50.016;19.954;2023-08-30T08:44:52;9.40;;;4.80;;
75810;SDS011;64449;50.016;19.954;2023-08-30T08:47:20;7.40;;;4.20;;
75810;SDS011;64449;50.016;19.954;2023-08-30T08:49:49;6.10;;;3.90;;
75810;SDS011;64449;50.016;19.954;2023-08-30T08:52:15;8.80;;;4.80;;
75810;SDS011;64449;50.016;19.954;2023-08-30T08:54:41;6.00;;;3.90;;
75810;SDS011;64449;50.016;19.954;2023-08-30T08:57:07;7.60;;;4.30;;
75810;SDS011;64449;50.016;19.954;2023-08-30T08:59:33;7.60;;;4.80;;
75810;SDS011;64449;50.016;19.954;2023-08-30T09:01:59;7.70;;;4.30;;
75810;SDS011;64449;50.016;19.954;2023-08-30T09:04:25;7.40;;;4.10;;
75810;SDS011;64449;50.016;19.954;2023-08-30T09:06:51;7.90;;;4.20;;
75810;SDS011;64449;50.016;19.954;2023-08-30T09:09:17;5.50;;;3.50;;
75810;SDS011;64449;50.016;19.954;2023-08-30T09:11:43;7.50;;;4.60;;
75810;SDS011;64449;50.016;19.954;2023-08-30T09:14:08;6.70;;;4.60;;
75810;SDS011;64449;50.016;19.954;2023-08-30T09:16:34;7.40;;;4.20;;
75810;SDS011;64449;50.016;19.954;2023-08-30T09:19:00;6.70;;;4.60;;
75810;SDS011;64449;50.016;19.954;2023-08-30T09:21:28;6.50;;;5.00;;
75810;SDS011;64449;50.016;19.954;2023-08-30T09:23:58;6.30;;;4.30;;
75810;SDS011;64449;50.016;19.954;2023-08-30T09:26:28;6.90;;;4.50;;
75810;SDS011;64449;50.016;19.954;2023-08-30T09:28:55;8.40;;;4.80;;
75810;SDS011;64449;50.016;19.954;2023-08-30T09:31:21;6.60;;;4.70;;
75810;SDS011;64449;50.016;19.954;2023-08-30T09:33:46;8.20;;;4.70;;
75810;SDS011;64449;50.016;19.954;2023-08-30T09:36:13;8.80;;;5.20;;
75810;SDS011;64449;50.016;19.954;2023-08-30T09:38:39;7.70;;;5.50;;
75810;SDS011;64449;50.016;19.954;2023-08-30T09:41:04;9.10;;;5.80;;
75810;SDS011;64449;50.016;19.954;2023-08-30T09:43:31;9.10;;;5.80;;
75810;SDS011;64449;50.016;19.954;2023-08-30T09:45:58;8.50;;;5.00;;
75810;SDS011;64449;50.016;19.954;2023-08-30T09:48:27;14.20;;;6.10;;
75810;SDS011;64449;50.016;19.954;2023-08-30T09:50:54;9.50;;;6.20;;
75810;SDS011;64449;50.016;19.954;2023-08-30T09:53:25;9.60;;;6.40;;
75810;SDS011;64449;50.016;19.954;2023-08-30T09:55:53;10.50;;;6.70;;
75810;SDS011;64449;50.016;19.954;2023-08-30T09:58:23;8.60;;;5.40;;
75810;SDS011;64449;50.016;19.954;2023-08-30T10:00:48;9.40;;;6.30;;
75810;SDS011;64449;50.016;19.954;2023-08-30T10:03:15;7.70;;;5.30;;
75810;SDS011;64449;50.016;19.954;2023-08-30T10:05:42;11.10;;;5.80;;
75810;SDS011;64449;50.016;19.954;2023-08-30T10:08:07;11.20;;;5.60;;
75810;SDS011;64449;50.016;19.954;2023-08-30T10:10:34;8.80;;;6.00;;
75810;SDS011;64449;50.016;19.954;2023-08-30T10:13:01;8.40;;;5.00;;
75810;SDS011;64449;50.016;19.954;2023-08-30T10:15:27;6.40;;;4.10;;
75810;SDS011;64449;50.016;19.954;2023-08-30T10:17:55;6.90;;;4.70;;
75810;SDS011;64449;50.016;19.954;2023-08-30T10:20:23;7.20;;;4.60;;
75810;SDS011;64449;50.016;19.954;2023-08-30T10:22:49;7.20;;;4.50;;
75810;SDS011;64449;50.016;19.954;2023-08-30T10:25:21;6.70;;;4.30;;
75810;SDS011;64449;50.016;19.954;2023-08-30T10:27:50;7.70;;;5.50;;
75810;SDS011;64449;50.016;19.954;2023-08-30T10:30:16;7.10;;;4.80;;
75810;SDS011;64449;50.016;19.954;2023-08-30T10:32:44;7.20;;;5.20;;
75810;SDS011;64449;50.016;19.954;2023-08-30T10:35:14;8.50;;;5.00;;
75810;SDS011;64449;50.016;19.954;2023-08-30T10:37:53;12.00;;;5.30;;
75810;SDS011;64449;50.016;19.954;2023-08-30T10:40:21;9.70;;;4.80;;
75810;SDS011;64449;50.016;19.954;2023-08-30T10:42:58;7.90;;;5.00;;
75810;SDS011;64449;50.016;19.954;2023-08-30T10:45:24;6.40;;;4.30;;
75810;SDS011;64449;50.016;19.954;2023-08-30T10:47:53;8.20;;;5.20;;
75810;SDS011;64449;50.016;19.954;2023-08-30T10:50:26;8.20;;;5.50;;
75810;SDS011;64449;50.016;19.954;2023-08-30T10:55:22;7.70;;;4.70;;
75810;SDS011;64449;50.016;19.954;2023-08-30T10:57:57;9.70;;;5.60;;
75810;SDS011;64449;50.016;19.954;2023-08-30T11:00:25;8.60;;;5.40;;
75810;SDS011;64449;50.016;19.954;2023-08-30T11:02:53;7.70;;;5.20;;
75810;SDS011;64449;50.016;19.954;2023-08-30T11:05:21;7.90;;;5.40;;
75810;SDS011;64449;50.016;19.954;2023-08-30T11:07:48;7.50;;;4.90;;
75810;SDS011;64449;50.016;19.954;2023-08-30T11:10:15;7.60;;;5.40;;
75810;SDS011;64449;50.016;19.954;2023-08-30T11:12:42;7.30;;;5.30;;
75810;SDS011;64449;50.016;19.954;2023-08-30T11:15:09;9.40;;;6.50;;
75810;SDS011;64449;50.016;19.954;2023-08-30T11:17:35;8.50;;;5.70;;
75810;SDS011;64449;50.016;19.954;2023-08-30T11:20:08;8.50;;;5.30;;
75810;SDS011;64449;50.016;19.954;2023-08-30T11:22:42;7.40;;;5.40;;
75810;SDS011;64449;50.016;19.954;2023-08-30T11:25:09;8.90;;;5.80;;
75810;SDS011;64449;50.016;19.954;2023-08-30T11:27:35;7.90;;;5.50;;
75810;SDS011;64449;50.016;19.954;2023-08-30T11:30:01;7.80;;;5.40;;
75810;SDS011;64449;50.016;19.954;2023-08-30T11:32:33;8.70;;;5.70;;
75810;SDS011;64449;50.016;19.954;2023-08-30T11:35:00;7.60;;;4.90;;
75810;SDS011;64449;50.016;19.954;2023-08-30T11:37:28;8.20;;;5.30;;
75810;SDS011;64449;50.016;19.954;2023-08-30T11:39:55;7.20;;;5.50;;
75810;SDS011;64449;50.016;19.954;2023-08-30T11:42:21;9.00;;;6.10;;
75810;SDS011;64449;50.016;19.954;2023-08-30T11:44:47;7.80;;;5.50;;
75810;SDS011;64449;50.016;19.954;2023-08-30T11:47:17;9.80;;;6.00;;
75810;SDS011;64449;50.016;19.954;2023-08-30T11:49:52;8.80;;;5.30;;
75810;SDS011;64449;50.016;19.954;2023-08-30T11:52:19;8.40;;;5.60;;
75810;SDS011;64449;50.016;19.954;2023-08-30T11:54:46;9.40;;;6.20;;
75810;SDS011;64449;50.016;19.954;2023-08-30T11:57:13;9.30;;;6.60;;
75810;SDS011;64449;50.016;19.954;2023-08-30T11:59:38;8.10;;;5.60;;
75810;SDS011;64449;50.016;19.954;2023-08-30T12:02:04;8.20;;;5.20;;
75810;SDS011;64449;50.016;19.954;2023-08-30T12:04:32;8.30;;;5.70;;
75810;SDS011;64449;50.016;19.954;2023-08-30T12:06:57;10.00;;;5.90;;
75810;SDS011;64449;50.016;19.954;2023-08-30T12:09:33;9.60;;;6.30;;
75810;SDS011;64449;50.016;19.954;2023-08-30T12:12:09;10.20;;;6.60;;
75810;SDS011;64449;50.016;19.954;2023-08-30T12:14:36;11.30;;;7.00;;
75810;SDS011;64449;50.016;19.954;2023-08-30T12:17:02;12.10;;;7.00;;
75810;SDS011;64449;50.016;19.954;2023-08-30T12:19:28;9.80;;;6.60;;
75810;SDS011;64449;50.016;19.954;2023-08-30T12:21:54;11.50;;;7.70;;
75810;SDS011;64449;50.016;19.954;2023-08-30T12:24:19;12.60;;;7.30;;
75810;SDS011;64449;50.016;19.954;2023-08-30T12:26:45;11.20;;;7.30;;
75810;SDS011;64449;50.016;19.954;2023-08-30T12:29:10;11.80;;;6.40;;
75810;SDS011;64449;50.016;19.954;2023-08-30T12:31:35;12.10;;;6.90;;
75810;SDS011;64449;50.016;19.954;2023-08-30T12:34:02;12.50;;;7.10;;
75810;SDS011;64449;50.016;19.954;2023-08-30T12:36:28;11.10;;;7.30;;
75810;SDS011;64449;50.016;19.954;2023-08-30T12:38:53;12.40;;;8.10;;
75810;SDS011;64449;50.016;19.954;2023-08-30T12:41:18;13.10;;;8.40;;
75810;SDS011;64449;50.016;19.954;2023-08-30T12:43:45;14.50;;;8.40;;
75810;SDS011;64449;50.016;19.954;2023-08-30T12:46:11;14.50;;;9.50;;
75810;SDS011;64449;50.016;19.954;2023-08-30T12:48:36;14.30;;;8.10;;
75810;SDS011;64449;50.016;19.954;2023-08-30T12:51:01;16.60;;;10.80;;
75810;SDS011;64449;50.016;19.954;2023-08-30T12:53:28;16.30;;;10.20;;
75810;SDS011;64449;50.016;19.954;2023-08-30T12:55:54;13.80;;;8.50;;
75810;SDS011;64449;50.016;19.954;2023-08-30T12:58:19;21.10;;;10.10;;
75810;SDS011;64449;50.016;19.954;2023-08-30T13:00:44;15.00;;;9.30;;
75810;SDS011;64449;50.016;19.954;2023-08-30T13:03:10;15.80;;;9.20;;
75810;SDS011;64449;50.016;19.954;2023-08-30T13:05:35;13.20;;;8.20;;
75810;SDS011;64449;50.016;19.954;2023-08-30T13:08:01;15.50;;;9.30;;
75810;SDS011;64449;50.016;19.954;2023-08-30T13:10:27;14.20;;;8.40;;
75810;SDS011;64449;50.016;19.954;2023-08-30T13:12:53;12.70;;;8.30;;
75810;SDS011;64449;50.016;19.954;2023-08-30T13:15:18;13.60;;;8.90;;
75810;SDS011;64449;50.016;19.954;2023-08-30T13:17:44;13.20;;;8.80;;
75810;SDS011;64449;50.016;19.954;2023-08-30T13:20:09;14.80;;;9.70;;
75810;SDS011;64449;50.016;19.954;2023-08-30T13:22:36;14.00;;;8.70;;
75810;SDS011;64449;50.016;19.954;2023-08-30T13:25:02;14.60;;;9.40;;
75810;SDS011;64449;50.016;19.954;2023-08-30T13:27:29;13.50;;;9.50;;
75810;SDS011;64449;50.016;19.954;2023-08-30T13:29:55;13.80;;;9.30;;
75810;SDS011;64449;50.016;19.954;2023-08-30T13:32:20;14.90;;;8.90;;
75810;SDS011;64449;50.016;19.954;2023-08-30T13:34:46;16.40;;;10.90;;
75810;SDS011;64449;50.016;19.954;2023-08-30T13:37:12;17.70;;;11.00;;
75810;SDS011;64449;50.016;19.954;2023-08-30T13:39:39;14.00;;;9.60;;
75810;SDS011;64449;50.016;19.954;2023-08-30T13:42:05;14.30;;;10.10;;
75810;SDS011;64449;50.016;19.954;2023-08-30T13:44:30;15.60;;;10.00;;
75810;SDS011;64449;50.016;19.954;2023-08-30T13:46:57;14.40;;;9.40;;
75810;SDS011;64449;50.016;19.954;2023-08-30T13:49:22;13.90;;;9.10;;
75810;SDS011;64449;50.016;19.954;2023-08-30T13:51:48;12.50;;;7.90;;
75810;SDS011;64449;50.016;19.954;2023-08-30T13:54:13;11.80;;;8.10;;
75810;SDS011;64449;50.016;19.954;2023-08-30T13:56:39;11.20;;;7.80;;
75810;SDS011;64449;50.016;19.954;2023-08-30T13:59:04;13.30;;;8.30;;
75810;SDS011;64449;50.016;19.954;2023-08-30T14:01:31;10.70;;;7.70;;
75810;SDS011;64449;50.016;19.954;2023-08-30T14:03:57;15.50;;;11.40;;
75810;SDS011;64449;50.016;19.954;2023-08-30T14:06:22;15.10;;;10.50;;
75810;SDS011;64449;50.016;19.954;2023-08-30T14:08:48;13.90;;;8.80;;
75810;SDS011;64449;50.016;19.954;2023-08-30T14:11:13;16.10;;;11.20;;
75810;SDS011;64449;50.016;19.954;2023-08-30T14:13:40;13.60;;;9.00;;
75810;SDS011;64449;50.016;19.954;2023-08-30T14:16:05;16.60;;;11.90;;
75810;SDS011;64449;50.016;19.954;2023-08-30T14:18:31;13.00;;;8.70;;
75810;SDS011;64449;50.016;19.954;2023-08-30T14:20:57;19.00;;;7.70;;
75810;SDS011;64449;50.016;19.954;2023-08-30T14:23:24;13.00;;;8.00;;
75810;SDS011;64449;50.016;19.954;2023-08-30T14:26:25;10.70;;;6.60;;
75810;SDS011;64449;50.016;19.954;2023-08-30T14:28:44;12.70;;;7.60;;
75810;SDS011;64449;50.016;19.954;2023-08-30T14:31:09;15.20;;;9.20;;
75810;SDS011;64449;50.016;19.954;2023-08-30T14:33:36;10.40;;;6.70;;
75810;SDS011;64449;50.016;19.954;2023-08-30T14:36:02;11.20;;;7.80;;
75810;SDS011;64449;50.016;19.954;2023-08-30T14:38:28;12.40;;;8.80;;